createdAt,value
2023-02-01T00:00:19.685Z,6.40
2023-02-01T00:02:49.098Z,9.57
2023-02-01T00:05:17.526Z,8.67
2023-02-01T00:07:48.979Z,8.37
2023-02-01T00:10:18.008Z,9.37
2023-02-01T00:12:46.818Z,9.20
2023-02-01T00:15:14.609Z,9.00
2023-02-01T00:17:42.448Z,6.87
2023-02-01T00:20:13.228Z,6.63
2023-02-01T00:22:41.027Z,7.77
2023-02-01T00:25:10.003Z,6.73
2023-02-01T00:27:37.925Z,12.10
2023-02-01T00:30:06.798Z,5.97
2023-02-01T00:32:34.659Z,8.37
2023-02-01T00:35:02.528Z,5.60
2023-02-01T00:37:32.042Z,5.97
2023-02-01T00:39:59.892Z,7.43
2023-02-01T00:42:27.723Z,5.80
2023-02-01T00:44:55.527Z,9.70
2023-02-01T00:47:23.610Z,5.00
2023-02-01T00:49:51.479Z,6.73
2023-02-01T00:52:19.822Z,5.03
2023-02-01T00:54:49.446Z,5.80
2023-02-01T00:57:17.612Z,4.77
2023-02-01T00:59:45.744Z,4.43
2023-02-01T01:02:15.342Z,5.73
2023-02-01T01:04:43.623Z,4.57
2023-02-01T01:07:11.779Z,3.87
2023-02-01T01:09:40.074Z,5.60
2023-02-01T01:12:10.665Z,4.40
2023-02-01T01:14:38.865Z,3.30
2023-02-01T01:17:07.175Z,4.20
2023-02-01T01:19:35.787Z,3.53
2023-02-01T01:22:04.052Z,3.93
2023-02-01T01:24:31.849Z,4.23
2023-02-01T01:26:59.685Z,3.77
2023-02-01T01:29:29.004Z,4.33
2023-02-01T01:31:57.155Z,3.93
2023-02-01T01:34:25.114Z,4.40
2023-02-01T01:36:53.015Z,4.67
2023-02-01T01:39:20.906Z,5.33
2023-02-01T01:41:49.127Z,5.03
2023-02-01T01:45:00.651Z,5.33
2023-02-01T01:47:36.910Z,4.30
2023-02-01T01:50:08.171Z,6.10
2023-02-01T01:52:37.058Z,4.03
2023-02-01T01:55:06.239Z,5.97
2023-02-01T01:57:37.536Z,5.63
2023-02-01T02:00:10.802Z,5.63
2023-02-01T02:02:49.027Z,7.00
2023-02-01T02:05:19.944Z,4.33
2023-02-01T02:07:51.332Z,3.77
2023-02-01T02:10:20.378Z,5.57
2023-02-01T02:12:50.745Z,5.70
2023-02-01T02:15:20.141Z,6.00
2023-02-01T02:17:58.092Z,4.73
2023-02-01T02:20:46.831Z,6.83
2023-02-01T02:23:32.728Z,5.20
2023-02-01T02:26:41.205Z,5.13
2023-02-01T02:29:44.995Z,7.37
2023-02-01T02:32:42.000Z,6.97
2023-02-01T02:35:19.181Z,5.87
2023-02-01T02:37:56.316Z,5.37
2023-02-01T02:40:33.296Z,9.17
2023-02-01T02:43:25.015Z,5.80
2023-02-01T02:46:14.905Z,7.07
2023-02-01T02:48:48.357Z,4.67
2023-02-01T02:51:43.277Z,6.43
2023-02-01T02:54:33.455Z,5.43
2023-02-01T02:57:21.521Z,10.30
2023-02-01T03:00:08.306Z,5.97
2023-02-01T03:02:54.882Z,4.97
2023-02-01T03:05:22.907Z,5.20
2023-02-01T03:07:59.255Z,4.37
2023-02-01T03:10:37.614Z,5.57
2023-02-01T03:13:10.111Z,7.43
2023-02-01T03:15:44.426Z,5.20
2023-02-01T03:18:17.385Z,5.60
2023-02-01T03:20:48.790Z,4.00
2023-02-01T03:23:22.829Z,5.40
2023-02-01T03:25:54.253Z,4.73
2023-02-01T03:28:27.830Z,5.50
2023-02-01T03:30:56.517Z,5.60
2023-02-01T03:33:28.493Z,5.83
2023-02-01T03:36:07.593Z,4.83
2023-02-01T03:38:42.491Z,6.33
2023-02-01T03:41:20.068Z,5.70
2023-02-01T03:43:57.474Z,4.60
2023-02-01T03:46:33.667Z,4.30
2023-02-01T03:49:05.675Z,4.20
2023-02-01T03:51:35.622Z,4.80
2023-02-01T03:54:08.438Z,4.83
2023-02-01T03:56:40.248Z,4.20
2023-02-01T03:59:08.139Z,5.40
2023-02-01T04:01:37.345Z,3.83
2023-02-01T04:04:05.804Z,4.80
2023-02-01T04:06:34.419Z,5.53
2023-02-01T04:09:06.108Z,4.77
2023-02-01T04:11:33.942Z,6.43
2023-02-01T04:14:05.325Z,5.63
2023-02-01T04:16:33.480Z,3.90
2023-02-01T04:19:01.905Z,4.03
2023-02-01T04:21:30.435Z,4.63
2023-02-01T04:23:58.622Z,5.60
2023-02-01T04:26:27.861Z,4.80
2023-02-01T04:28:55.733Z,3.90
2023-02-01T04:31:26.485Z,4.30
2023-02-01T04:33:55.590Z,3.90
2023-02-01T04:36:24.223Z,5.67
2023-02-01T04:38:52.761Z,10.87
2023-02-01T04:41:21.106Z,9.30
2023-02-01T04:43:51.919Z,4.87
2023-02-01T04:46:20.330Z,12.37
2023-02-01T04:48:48.208Z,5.80
2023-02-01T04:51:16.945Z,7.17
2023-02-01T04:53:44.848Z,4.10
2023-02-01T04:56:12.931Z,4.80
2023-02-01T04:58:40.807Z,19.57
2023-02-01T05:01:10.040Z,19.43
2023-02-01T05:03:37.846Z,7.77
2023-02-01T05:06:06.004Z,10.83
2023-02-01T05:08:34.632Z,5.77
2023-02-01T05:11:04.351Z,6.30
2023-02-01T05:13:50.073Z,8.10
2023-02-01T05:16:19.332Z,10.40
2023-02-01T05:18:47.532Z,6.70
2023-02-01T05:21:15.392Z,6.20
2023-02-01T05:23:57.151Z,6.63
2023-02-01T05:26:26.097Z,12.13
2023-02-01T05:28:54.040Z,5.77
2023-02-01T05:31:24.169Z,8.77
2023-02-01T05:33:52.036Z,8.67
2023-02-01T05:36:19.967Z,39.37
2023-02-01T05:38:47.734Z,49.30
2023-02-01T05:41:15.572Z,115.90
2023-02-01T05:43:43.465Z,10.37
2023-02-01T05:46:13.731Z,11.23
2023-02-01T05:48:43.520Z,17.60
2023-02-01T05:51:11.678Z,19.77
2023-02-01T05:53:39.603Z,16.17
2023-02-01T05:56:08.391Z,12.53
2023-02-01T05:58:36.423Z,9.13
2023-02-01T06:01:04.751Z,45.70
2023-02-01T06:03:32.721Z,25.43
2023-02-01T06:06:02.505Z,60.77
2023-02-01T06:08:30.638Z,31.10
2023-02-01T06:11:01.947Z,38.23
2023-02-01T06:13:30.405Z,24.93
2023-02-01T06:15:59.059Z,15.23
2023-02-01T06:18:27.387Z,17.23
2023-02-01T06:20:56.292Z,30.97
2023-02-01T06:23:25.737Z,17.33
2023-02-01T06:25:54.249Z,49.00
2023-02-01T06:28:22.641Z,60.17
2023-02-01T06:30:50.532Z,74.40
2023-02-01T06:33:18.471Z,48.17
2023-02-01T06:35:46.548Z,12.23
2023-02-01T06:38:14.852Z,14.77
2023-02-01T06:40:44.679Z,8.17
2023-02-01T06:43:12.627Z,14.80
2023-02-01T06:45:40.587Z,10.57
2023-02-01T06:48:08.629Z,19.23
2023-02-01T06:50:36.583Z,15.40
2023-02-01T06:53:04.409Z,7.57
2023-02-01T06:55:32.268Z,22.53
2023-02-01T06:58:02.248Z,26.60
2023-02-01T07:00:30.301Z,22.93
2023-02-01T07:03:00.100Z,16.00
2023-02-01T07:05:27.936Z,23.27
2023-02-01T07:07:55.707Z,10.33
2023-02-01T07:10:23.796Z,9.77
2023-02-01T07:12:51.805Z,12.03
2023-02-01T07:15:21.093Z,14.17
2023-02-01T07:17:50.039Z,13.57
2023-02-01T07:20:18.503Z,9.80
2023-02-01T07:22:46.338Z,11.67
2023-02-01T07:25:14.481Z,19.40
2023-02-01T07:27:42.439Z,6.60
2023-02-01T07:30:11.741Z,18.23
2023-02-01T07:32:40.982Z,18.73
2023-02-01T07:35:09.422Z,9.93
2023-02-01T07:37:37.995Z,7.70
2023-02-01T07:40:07.176Z,8.17
2023-02-01T07:42:36.051Z,8.07
2023-02-01T07:45:20.021Z,6.03
2023-02-01T07:47:50.720Z,9.67
2023-02-01T07:50:18.754Z,6.50
2023-02-01T07:52:46.559Z,12.63
2023-02-01T07:55:14.374Z,5.27
2023-02-01T07:57:42.628Z,6.63
2023-02-01T08:00:29.522Z,5.47
2023-02-01T08:03:00.144Z,5.83
2023-02-01T08:05:28.394Z,11.30
2023-02-01T08:07:56.576Z,13.20
2023-02-01T08:10:24.609Z,8.17
2023-02-01T08:12:52.949Z,15.17
2023-02-01T08:15:20.796Z,11.03
2023-02-01T08:17:49.628Z,10.33
2023-02-01T08:20:19.922Z,7.57
2023-02-01T08:22:47.753Z,8.00
2023-02-01T08:25:15.735Z,7.83
2023-02-01T08:27:43.652Z,8.27
2023-02-01T08:30:12.638Z,10.50
2023-02-01T08:32:40.535Z,8.77
2023-02-01T08:35:09.393Z,10.67
2023-02-01T08:37:38.674Z,10.10
2023-02-01T08:40:07.808Z,5.83
2023-02-01T08:42:53.656Z,7.23
2023-02-01T08:45:23.179Z,9.73
2023-02-01T08:47:51.095Z,10.60
2023-02-01T08:50:19.814Z,10.80
2023-02-01T08:52:49.474Z,10.80
2023-02-01T08:55:17.780Z,9.00
2023-02-01T08:57:46.214Z,8.27
2023-02-01T09:00:16.875Z,14.37
2023-02-01T09:02:44.834Z,9.57
2023-02-01T09:05:14.953Z,9.50
2023-02-01T09:07:42.812Z,7.13
2023-02-01T09:10:13.747Z,6.07
2023-02-01T09:12:42.429Z,9.17
2023-02-01T09:15:10.859Z,8.20
2023-02-01T09:17:38.873Z,8.50
2023-02-01T09:20:07.395Z,9.50
2023-02-01T09:22:35.198Z,8.20
2023-02-01T09:25:03.178Z,13.90
2023-02-01T09:27:32.399Z,10.97
2023-02-01T09:30:00.335Z,8.37
2023-02-01T09:32:28.308Z,11.73
2023-02-01T09:34:56.187Z,11.07
2023-02-01T09:37:24.103Z,10.83
2023-02-01T09:39:51.884Z,13.37
2023-02-01T09:42:32.984Z,13.33
2023-02-01T09:45:15.025Z,11.50
2023-02-01T09:47:49.895Z,13.73
2023-02-01T09:50:22.420Z,10.77
2023-02-01T09:52:56.924Z,14.53
2023-02-01T09:55:35.873Z,18.17
2023-02-01T09:58:07.861Z,13.03
2023-02-01T10:00:39.880Z,16.57
2023-02-01T10:03:12.990Z,14.10
2023-02-01T10:06:08.041Z,13.73
2023-02-01T10:08:45.131Z,11.70
2023-02-01T10:11:27.116Z,13.60
2023-02-01T10:14:09.256Z,9.50
2023-02-01T10:16:46.985Z,9.67
2023-02-01T10:19:29.277Z,8.90
2023-02-01T10:22:02.863Z,26.77
2023-02-01T10:24:42.973Z,21.10
2023-02-01T10:27:22.385Z,23.27
2023-02-01T10:29:54.400Z,42.33
2023-02-01T10:32:27.032Z,51.20
2023-02-01T10:34:59.714Z,77.77
2023-02-01T10:37:30.867Z,60.63
2023-02-01T10:40:01.768Z,26.20
2023-02-01T10:42:31.449Z,30.53
2023-02-01T10:45:04.063Z,10.43
2023-02-01T10:47:33.237Z,15.40
2023-02-01T10:50:16.559Z,14.47
2023-02-01T10:52:50.608Z,13.40
2023-02-01T10:55:50.386Z,23.37
2023-02-01T10:58:20.536Z,13.87
2023-02-01T11:00:54.595Z,22.63
2023-02-01T11:03:40.860Z,15.93
2023-02-01T11:06:18.801Z,9.27
2023-02-01T11:08:51.889Z,14.37
2023-02-01T11:11:20.462Z,14.60
2023-02-01T11:13:55.428Z,18.73
2023-02-01T11:16:23.775Z,11.63
2023-02-01T11:18:56.847Z,11.63
2023-02-01T11:21:25.181Z,15.93
2023-02-01T11:23:53.077Z,12.37
2023-02-01T11:26:25.390Z,15.53
2023-02-01T11:28:58.812Z,16.73
2023-02-01T11:31:28.224Z,22.43
2023-02-01T11:34:01.494Z,10.03
2023-02-01T11:36:32.392Z,18.10
2023-02-01T11:39:19.942Z,15.00
2023-02-01T11:42:00.169Z,17.63
2023-02-01T11:44:33.978Z,34.10
2023-02-01T11:47:26.848Z,12.43
2023-02-01T11:49:58.252Z,37.43
2023-02-01T11:52:51.545Z,23.43
2023-02-01T11:55:41.953Z,17.43
2023-02-01T11:58:24.733Z,27.67
2023-02-01T12:01:06.996Z,10.07
2023-02-01T12:03:54.273Z,7.90
2023-02-01T12:06:33.091Z,17.03
2023-02-01T12:09:23.946Z,8.27
2023-02-01T12:12:02.353Z,10.53
2023-02-01T12:14:44.199Z,13.73
2023-02-01T12:17:35.621Z,18.43
2023-02-01T12:20:27.353Z,8.50
2023-02-01T12:23:17.528Z,8.97
2023-02-01T12:26:02.487Z,11.13
2023-02-01T12:28:57.607Z,9.07
2023-02-01T12:32:01.247Z,16.20
2023-02-01T12:34:40.925Z,17.80
2023-02-01T12:37:25.376Z,14.33
2023-02-01T12:40:04.682Z,19.43
2023-02-01T12:42:38.061Z,8.53
2023-02-01T12:45:16.695Z,11.33
2023-02-01T12:47:53.134Z,10.53
2023-02-01T12:50:26.770Z,9.03
2023-02-01T12:52:58.456Z,17.00
2023-02-01T12:55:36.915Z,7.93
2023-02-01T12:58:13.014Z,14.70
2023-02-01T13:00:46.227Z,18.70
2023-02-01T13:03:26.314Z,14.53
2023-02-01T13:06:00.723Z,24.57
2023-02-01T13:08:39.580Z,27.73
2023-02-01T13:11:16.088Z,21.40
2023-02-01T13:13:51.503Z,13.50
2023-02-01T13:16:28.147Z,19.73
2023-02-01T13:19:13.212Z,13.23
2023-02-01T13:21:45.091Z,14.27
2023-02-01T13:24:28.932Z,14.10
2023-02-01T13:26:58.383Z,14.17
2023-02-01T13:29:29.199Z,11.33
2023-02-01T13:32:19.710Z,104.57
2023-02-01T13:35:28.936Z,16.60
2023-02-01T13:38:24.110Z,12.60
2023-02-01T13:41:06.470Z,9.87
2023-02-01T13:43:36.552Z,16.40
2023-02-01T13:46:08.746Z,16.03
2023-02-01T13:48:47.421Z,14.57
2023-02-01T13:51:16.680Z,16.70
2023-02-01T13:53:48.727Z,16.03
2023-02-01T13:56:19.488Z,23.73
2023-02-01T13:58:50.022Z,17.47
2023-02-01T14:01:45.074Z,23.80
2023-02-01T14:04:48.037Z,42.23
2023-02-01T14:07:21.656Z,29.03
2023-02-01T14:09:50.048Z,44.90
2023-02-01T14:12:46.997Z,42.70
2023-02-01T14:15:29.819Z,32.53
2023-02-01T14:17:57.972Z,34.70
2023-02-01T14:20:50.012Z,13.83
2023-02-01T14:23:22.231Z,17.50
2023-02-01T14:26:04.473Z,14.00
2023-02-01T14:28:32.905Z,16.40
2023-02-01T14:31:02.347Z,15.17
2023-02-01T14:33:30.650Z,16.20
2023-02-01T14:36:09.838Z,11.93
2023-02-01T14:38:39.984Z,11.30
2023-02-01T14:41:28.116Z,15.03
2023-02-01T14:44:28.222Z,7.53
2023-02-01T14:47:31.866Z,21.07
2023-02-01T14:50:26.936Z,14.57
2023-02-01T14:53:08.677Z,15.60
2023-02-01T14:55:42.200Z,14.20
2023-02-01T14:58:20.049Z,17.30
2023-02-01T15:00:52.179Z,57.97
2023-02-01T15:03:36.574Z,38.37
2023-02-01T15:06:07.004Z,30.30
2023-02-01T15:08:40.124Z,14.10
2023-02-01T15:11:14.364Z,29.67
2023-02-01T15:13:42.544Z,25.83
2023-02-01T15:16:14.021Z,16.70
2023-02-01T15:18:43.783Z,56.63
2023-02-01T15:21:28.430Z,80.10
2023-02-01T15:24:12.814Z,34.67
2023-02-01T15:26:41.207Z,66.20
2023-02-01T15:29:13.434Z,109.87
2023-02-01T15:31:43.883Z,158.77
2023-02-01T15:34:13.710Z,172.20
2023-02-01T15:36:50.582Z,43.00
2023-02-01T15:39:26.850Z,107.80
2023-02-01T15:41:57.336Z,159.03
2023-02-01T15:44:35.869Z,28.50
2023-02-01T15:47:10.996Z,40.77
2023-02-01T15:49:43.724Z,46.93
2023-02-01T15:52:23.184Z,40.57
2023-02-01T15:54:54.298Z,52.73
2023-02-01T15:57:31.379Z,34.00
2023-02-01T16:00:00.856Z,20.53
2023-02-01T16:02:33.298Z,20.13
2023-02-01T16:05:03.876Z,19.53
2023-02-01T16:07:34.744Z,17.47
2023-02-01T16:10:07.992Z,18.13
2023-02-01T16:12:47.746Z,10.30
2023-02-01T16:15:16.467Z,10.20
2023-02-01T16:17:44.802Z,13.57
2023-02-01T16:20:14.926Z,16.80
2023-02-01T16:22:43.004Z,16.23
2023-02-01T16:25:11.079Z,12.30
2023-02-01T16:27:38.984Z,16.00
2023-02-01T16:30:09.917Z,13.93
2023-02-01T16:32:39.238Z,7.57
2023-02-01T16:35:14.595Z,18.53
2023-02-01T16:37:43.779Z,8.70
2023-02-01T16:40:15.309Z,10.13
2023-02-01T16:42:43.397Z,30.47
2023-02-01T16:45:12.056Z,46.93
2023-02-01T16:47:42.569Z,83.97
2023-02-01T16:50:23.059Z,100.67
2023-02-01T16:52:54.272Z,77.47
2023-02-01T16:55:23.926Z,51.50
2023-02-01T16:57:52.122Z,43.80
2023-02-01T17:00:25.103Z,29.20
2023-02-01T17:02:54.185Z,50.90
2023-02-01T17:05:23.148Z,36.07
2023-02-01T17:07:51.535Z,29.73
2023-02-01T17:10:33.353Z,25.70
2023-02-01T17:13:02.377Z,13.90
2023-02-01T17:15:36.827Z,22.37
2023-02-01T17:18:05.399Z,66.73
2023-02-01T17:20:34.058Z,97.00
2023-02-01T17:23:02.123Z,37.97
2023-02-01T17:25:32.814Z,42.17
2023-02-01T17:28:01.218Z,32.40
2023-02-01T17:30:29.305Z,20.53
2023-02-01T17:32:57.659Z,44.07
2023-02-01T17:35:28.165Z,27.77
2023-02-01T17:37:56.637Z,27.93
2023-02-01T17:40:25.010Z,22.53
2023-02-01T17:42:57.799Z,14.90
2023-02-01T17:45:36.340Z,10.83
2023-02-01T17:48:05.026Z,12.23
2023-02-01T17:50:35.876Z,14.97
2023-02-01T17:53:05.968Z,11.53
2023-02-01T17:55:36.635Z,13.97
2023-02-01T17:58:05.983Z,19.63
2023-02-01T18:00:35.730Z,11.37
2023-02-01T18:03:04.900Z,13.47
2023-02-01T18:05:40.282Z,13.93
2023-02-01T18:08:08.688Z,12.30
2023-02-01T18:10:37.105Z,10.50
2023-02-01T18:13:06.422Z,10.97
2023-02-01T18:15:34.300Z,13.20
2023-02-01T18:18:02.512Z,10.13
2023-02-01T18:20:30.360Z,16.70
2023-02-01T18:22:58.505Z,9.37
2023-02-01T18:25:27.915Z,13.50
2023-02-01T18:27:57.295Z,9.97
2023-02-01T18:30:32.072Z,7.70
2023-02-01T18:33:00.241Z,7.03
2023-02-01T18:35:30.497Z,14.33
2023-02-01T18:37:59.426Z,8.07
2023-02-01T18:40:30.691Z,12.13
2023-02-01T18:42:58.558Z,11.63
2023-02-01T18:45:31.783Z,14.60
2023-02-01T18:48:00.749Z,11.30
2023-02-01T18:50:31.138Z,12.17
2023-02-01T18:53:00.355Z,15.00
2023-02-01T18:55:29.777Z,16.33
2023-02-01T18:57:57.595Z,9.73
2023-02-01T19:00:25.609Z,10.60
2023-02-01T19:02:55.194Z,12.20
2023-02-01T19:05:23.767Z,10.30
2023-02-01T19:07:52.129Z,14.27
2023-02-01T19:10:22.380Z,10.50
2023-02-01T19:12:50.729Z,16.27
2023-02-01T19:15:19.153Z,5.50
2023-02-01T19:17:48.792Z,15.00
2023-02-01T19:20:20.512Z,21.70
2023-02-01T19:22:48.596Z,18.17
2023-02-01T19:25:19.850Z,19.07
2023-02-01T19:27:48.061Z,23.07
2023-02-01T19:30:16.874Z,10.93
2023-02-01T19:32:44.915Z,19.50
2023-02-01T19:35:15.117Z,12.40
2023-02-01T19:37:44.596Z,11.50
2023-02-01T19:40:14.763Z,15.10
2023-02-01T19:42:42.659Z,8.53
2023-02-01T19:45:11.711Z,15.60
2023-02-01T19:47:40.098Z,11.10
2023-02-01T19:50:09.452Z,9.37
2023-02-01T19:52:38.042Z,12.23
2023-02-01T19:55:07.842Z,9.17
2023-02-01T19:57:36.354Z,16.10
2023-02-01T20:00:05.630Z,8.70
2023-02-01T20:02:32.618Z,8.47
2023-02-01T20:05:00.565Z,10.47
2023-02-01T20:07:28.332Z,6.53
2023-02-01T20:09:56.125Z,8.83
2023-02-01T20:12:25.395Z,10.63
2023-02-01T20:14:55.493Z,13.20
2023-02-01T20:17:23.425Z,8.60
2023-02-01T20:19:51.333Z,10.93
2023-02-01T20:22:19.659Z,7.67
2023-02-01T20:24:47.457Z,8.97
2023-02-01T20:27:17.443Z,8.23
2023-02-01T20:29:46.650Z,12.40
2023-02-01T20:32:14.449Z,14.17
2023-02-01T20:34:42.689Z,7.83
2023-02-01T20:37:10.499Z,14.20
2023-02-01T20:39:38.319Z,16.53
2023-02-01T20:42:06.347Z,14.47
2023-02-01T20:44:34.235Z,21.47
2023-02-01T20:47:05.491Z,18.83
2023-02-01T20:49:34.562Z,12.43
2023-02-01T20:52:02.445Z,19.87
2023-02-01T20:54:30.597Z,15.53
2023-02-01T20:56:58.395Z,14.27
2023-02-01T20:59:26.204Z,12.37
2023-02-01T21:01:54.061Z,22.70
2023-02-01T21:04:27.201Z,20.37
2023-02-01T21:06:55.168Z,8.73
2023-02-01T21:09:23.554Z,10.90
2023-02-01T21:11:51.639Z,7.73
2023-02-01T21:14:20.403Z,14.27
2023-02-01T21:16:48.919Z,12.97
2023-02-01T21:19:19.423Z,14.53
2023-02-01T21:21:48.644Z,14.73
2023-02-01T21:24:16.493Z,13.90
2023-02-01T21:26:44.315Z,17.80
2023-02-01T21:29:14.092Z,13.97
2023-02-01T21:31:43.149Z,10.17
2023-02-01T21:34:11.684Z,12.17
2023-02-01T21:36:39.618Z,10.53
2023-02-01T21:39:11.523Z,15.27
2023-02-01T21:41:57.296Z,11.43
2023-02-01T21:44:25.291Z,14.77
2023-02-01T21:46:55.516Z,6.23
2023-02-01T21:49:25.478Z,10.50
2023-02-01T21:51:53.751Z,17.17
2023-02-01T21:54:23.017Z,7.03
2023-02-01T21:56:50.864Z,12.23
2023-02-01T21:59:18.764Z,19.03
2023-02-01T22:01:46.984Z,15.33
2023-02-01T22:04:14.821Z,11.50
2023-02-01T22:06:46.217Z,17.87
2023-02-01T22:09:17.871Z,8.73
2023-02-01T22:11:48.647Z,11.23
2023-02-01T22:14:17.244Z,10.80
2023-02-01T22:16:45.681Z,18.00
2023-02-01T22:19:14.100Z,11.50
2023-02-01T22:21:43.253Z,10.90
2023-02-01T22:24:12.397Z,11.63
2023-02-01T22:26:41.222Z,15.03
2023-02-01T22:29:12.981Z,17.17
2023-02-01T22:31:41.037Z,10.57
2023-02-01T22:34:11.095Z,18.37
2023-02-01T22:36:39.096Z,6.63
2023-02-01T22:39:06.976Z,13.40
2023-02-01T22:41:34.895Z,10.70
2023-02-01T22:44:02.741Z,12.57
2023-02-01T22:46:32.320Z,13.20
2023-02-01T22:49:01.202Z,15.53
2023-02-01T22:51:30.532Z,23.43
2023-02-01T22:53:59.252Z,9.87
2023-02-01T22:56:30.218Z,10.10
2023-02-01T22:58:59.964Z,13.73
2023-02-01T23:01:29.059Z,8.63
2023-02-01T23:03:59.465Z,13.93
2023-02-01T23:06:27.594Z,17.30
2023-02-01T23:08:57.038Z,14.47
2023-02-01T23:11:25.468Z,16.03
2023-02-01T23:13:53.276Z,9.13
2023-02-01T23:16:21.551Z,8.30
2023-02-01T23:18:49.706Z,15.57
2023-02-01T23:21:21.264Z,8.60
2023-02-01T23:23:50.461Z,10.57
2023-02-01T23:26:19.208Z,15.33
2023-02-01T23:28:47.243Z,7.67
2023-02-01T23:31:15.749Z,9.77
2023-02-01T23:33:49.141Z,13.50
2023-02-01T23:36:18.758Z,6.90
2023-02-01T23:38:47.546Z,9.93
2023-02-01T23:41:17.405Z,8.40
2023-02-01T23:44:01.733Z,7.40
2023-02-01T23:46:32.811Z,6.93
2023-02-01T23:49:01.726Z,6.57
2023-02-01T23:51:31.452Z,19.07
2023-02-01T23:53:59.596Z,10.50
2023-02-01T23:56:31.291Z,7.53
2023-02-01T23:58:59.270Z,11.77
